Airfield :
LOGIN :

Register | Disclaimer

   EN    FR    IT 

 










Legend :    VFR   Marginal VFR   IFR   Intensive IFR   Very Intensive IFR
Visi :
Ceiling :
>= 8 km
>= 3000ft
5 to 8 km
1000 to 3000 ft
1500m to 5 km
500 to 1000 ft
800 to 1500m
200 to 500 ft
< 800m
< 200 ft
Symbols :   Thunderstorms  Fog  Heavy snow  Heavy precipitations  Wind > 20 kt
SIGMETs :     Misc.  Thunderstorms  Icing  Turbulence  Mountain Waves  Volcanic Ashes







- Airport Elevation : 1339 ft


ETHN - Niederstetten

CURRENT METAR :
  • 111220Z 27013KT 9999 BKN006 BKN018 02/00 Q1020 YLO YLO TEMPO GRN

EXPIRED METARs :
  • 111212Z 27013KT 9999 BKN006 BKN015 02/00 Q1020 YLO YLO TEMPO GRN
  • 111120Z 27014KT 9999 BKN004 01/M00 Q1020 YLO YLO TEMPO GRN
  • 111020Z 27012KT 9999 BKN004 01/M00 Q1021 YLO BLU TEMPO YLO

TAF TAF ETHN
Valid from the 11 at 12:00 until the 11 at 21:00 UTC


111100Z 1112/1121 27015KT 9999 NSW BKN004 BKN010
TEMPO 1112/1115 27012KT 9999 NSW FEW006 BKN012
PROB30 1112/1115 27012G22KT 4000 -SHSNRA BKN002 BKN008TCU
BECMG 1118/1120 27007KT 3000 -SN OVC002
No reported NOTAMs for that airfield.



MET'MAP, your aeronautical weather chart ! - Copyright ORBIFLY December 2007 - Disclaimer

ORBIFLY MET'MAP TEAM :

Programming & Development : Alexandra Zaïnal
Concept & Development : Baudouin d'Aumeries
Co-Development & Prog : Marc-Olivier Méhu
Technical & hardware support : Manuel Goepfert

Contact : metmap@orbifly.com




SOURCES & CREDITS :

   NOAA